South Haven, Michigan
Current Conditions -  °F | °C
As of 3:55 AM on Sunday 23 Nov 2014 (Local Time) from KLWA Reporting Station
Overcast Overcast  
Wind Chill: 51°   Ceiling: 1700
Heat Index: 51°   Visibility: 10mi
Dew Point: 47°   Wind: 8mph
Humidity: 85%   Direction: 200°SSW
Pressure: 29.85"   Gusts: NA
Location:  42.4°N, 86.27°W
Report Text: KLWA 230855Z AUTO 20007KT 10SM OVC017 11/08 A2985 RMK AO2 T01070082
Loading
Personal Weather Stations






























Interactive Weather Map New forecast layout! Learn more

10-Day Weather Forecast

Advertisements
Track Severe Weather on mobile